Plummer, Minnesota
Current Conditions -  °F | °C
As of 10:35 PM on Tuesday 21 Oct 2014 (Local Time) from KTVF Reporting Station
Clear Clear  
Wind Chill: 54°   Ceiling: Unl
Heat Index: 54°   Visibility: 10mi
Dew Point: 37°   Wind: 16mph
Humidity: 54%   Direction: 150°SSE
Pressure: 29.93"   Gusts: 23mph
Location:  47.91°N, 96.04°W
Report Text: KTVF 220335Z AUTO 15014G20KT 10SM CLR 12/03 A2993 RMK AO1
Loading
Personal Weather Stations






























Interactive Weather Map
Tropical Storm Tracking
New forecast layout! Learn more

10-Day Weather Forecast

Advertisements
Track Severe Weather on mobile